createdAt,value
2022-10-14T00:01:58.685Z,23.20
2022-10-14T00:04:25.646Z,28.80
2022-10-14T00:06:52.241Z,18.92
2022-10-14T00:09:19.073Z,24.13
2022-10-14T00:11:45.955Z,24.08
2022-10-14T00:14:15.955Z,34.28
2022-10-14T00:16:45.054Z,25.52
2022-10-14T00:19:13.308Z,30.40
2022-10-14T00:21:42.563Z,20.00
2022-10-14T00:24:11.269Z,18.27
2022-10-14T00:26:39.957Z,25.23
2022-10-14T00:29:09.813Z,29.58
2022-10-14T00:31:36.597Z,29.05
2022-10-14T00:34:03.660Z,24.67
2022-10-14T00:36:30.477Z,31.48
2022-10-14T00:38:57.376Z,16.08
2022-10-14T00:41:28.910Z,28.90
2022-10-14T00:43:58.667Z,27.20
2022-10-14T00:46:27.859Z,26.08
2022-10-14T00:48:55.587Z,21.15
2022-10-14T00:51:22.686Z,25.95
2022-10-14T00:53:49.703Z,21.60
2022-10-14T00:56:19.699Z,33.28
2022-10-14T00:58:46.941Z,35.55
2022-10-14T01:01:14.222Z,20.33
2022-10-14T01:03:42.142Z,15.80
2022-10-14T01:06:32.123Z,22.00
2022-10-14T01:09:45.495Z,31.15
2022-10-14T01:12:33.466Z,25.15
2022-10-14T01:15:15.505Z,20.17
2022-10-14T01:18:13.434Z,27.90
2022-10-14T01:21:25.718Z,25.65
2022-10-14T01:24:10.374Z,27.75
2022-10-14T01:26:49.243Z,18.20
2022-10-14T01:29:43.454Z,17.60
2022-10-14T01:32:21.153Z,27.75
2022-10-14T01:34:57.555Z,27.58
2022-10-14T01:37:28.376Z,25.95
2022-10-14T01:40:01.037Z,28.50
2022-10-14T01:42:31.992Z,37.95
2022-10-14T01:45:05.586Z,41.92
2022-10-14T01:47:34.967Z,35.53
2022-10-14T01:50:11.455Z,25.95
2022-10-14T01:52:45.131Z,24.50
2022-10-14T01:55:17.564Z,23.35
2022-10-14T01:57:47.425Z,21.80
2022-10-14T02:00:14.755Z,25.13
2022-10-14T02:02:42.057Z,19.60
2022-10-14T02:05:32.333Z,24.92
2022-10-14T02:08:11.500Z,29.05
2022-10-14T02:10:51.831Z,13.70
2022-10-14T02:13:50.278Z,23.17
2022-10-14T02:28:08.227Z,25.10
2022-10-14T02:31:15.437Z,28.35
2022-10-14T02:41:26.642Z,20.02
2022-10-14T02:44:36.411Z,35.50
2022-10-14T02:51:05.423Z,32.42
2022-10-14T02:54:54.961Z,26.48
2022-10-14T02:57:32.530Z,37.97
2022-10-14T03:00:49.354Z,25.65
2022-10-14T03:04:07.504Z,32.08
2022-10-14T03:06:51.093Z,30.60
2022-10-14T03:09:36.147Z,30.52
2022-10-14T03:12:04.093Z,25.67
2022-10-14T03:14:30.855Z,30.40
2022-10-14T03:16:57.668Z,35.22
2022-10-14T03:19:25.022Z,30.00
2022-10-14T03:21:51.930Z,32.30
2022-10-14T03:24:18.787Z,29.52
2022-10-14T03:26:45.647Z,35.55
2022-10-14T03:29:12.374Z,40.28
2022-10-14T03:31:39.198Z,30.17
2022-10-14T03:34:06.190Z,32.92
2022-10-14T03:36:32.914Z,31.88
2022-10-14T03:38:59.722Z,24.20
2022-10-14T03:41:27.618Z,28.13
2022-10-14T03:43:54.474Z,37.45
2022-10-14T03:46:21.269Z,35.03
2022-10-14T03:48:48.526Z,28.02
2022-10-14T03:51:16.251Z,26.55
2022-10-14T03:53:42.951Z,32.65
2022-10-14T03:56:11.512Z,35.92
2022-10-14T03:58:38.175Z,40.10
2022-10-14T04:01:04.962Z,40.35
2022-10-14T04:03:31.655Z,31.88
2022-10-14T04:05:58.546Z,37.38
2022-10-14T04:08:25.544Z,47.45
2022-10-14T04:10:56.343Z,36.63
2022-10-14T04:13:23.274Z,34.70
2022-10-14T04:15:50.405Z,29.65
2022-10-14T04:18:18.200Z,24.35
2022-10-14T04:20:45.182Z,26.63
2022-10-14T04:23:12.461Z,27.58
2022-10-14T04:25:40.006Z,27.38
2022-10-14T04:28:07.425Z,26.70
2022-10-14T04:30:34.372Z,29.58
2022-10-14T04:33:01.448Z,29.77
2022-10-14T04:35:28.304Z,26.13
2022-10-14T04:37:55.680Z,22.80
2022-10-14T04:40:26.389Z,29.50
2022-10-14T04:42:57.039Z,20.00
2022-10-14T04:45:25.578Z,28.38
2022-10-14T04:47:53.648Z,20.10
2022-10-14T04:50:21.559Z,21.75
2022-10-14T04:52:49.002Z,29.58
2022-10-14T04:55:16.822Z,22.35
2022-10-14T04:57:44.464Z,16.55
2022-10-14T05:00:13.414Z,19.85
2022-10-14T05:02:40.970Z,32.38
2022-10-14T05:05:09.073Z,30.05
2022-10-14T05:07:39.175Z,25.95
2022-10-14T05:10:08.001Z,30.83
2022-10-14T05:12:35.635Z,27.17
2022-10-14T05:15:05.940Z,34.33
2022-10-14T05:17:37.162Z,32.75
2022-10-14T05:20:06.159Z,40.40
2022-10-14T05:22:33.742Z,28.45
2022-10-14T05:25:01.439Z,28.45
2022-10-14T05:27:29.513Z,28.88
2022-10-14T05:29:58.249Z,30.75
2022-10-14T05:32:26.974Z,27.00
2022-10-14T05:34:54.687Z,33.38
2022-10-14T05:37:22.259Z,35.42
2022-10-14T05:39:51.289Z,28.88
2022-10-14T05:42:19.605Z,66.82
2022-10-14T05:44:47.635Z,65.28
2022-10-14T05:47:15.663Z,88.07
2022-10-14T05:49:43.381Z,60.83
2022-10-14T05:52:12.442Z,51.95
2022-10-14T05:54:41.470Z,52.13
2022-10-14T05:57:09.406Z,50.75
2022-10-14T05:59:39.165Z,50.13
2022-10-14T06:02:09.097Z,36.60
2022-10-14T06:04:43.271Z,38.00
2022-10-14T06:07:12.683Z,41.20
2022-10-14T06:09:40.652Z,42.50
2022-10-14T06:12:07.853Z,39.47
2022-10-14T06:14:34.743Z,34.75
2022-10-14T06:17:01.639Z,41.58
2022-10-14T06:19:28.555Z,62.88
2022-10-14T06:21:55.760Z,53.90
2022-10-14T06:24:22.439Z,36.42
2022-10-14T06:26:49.508Z,29.23
2022-10-14T06:29:17.097Z,31.55
2022-10-14T06:31:44.140Z,43.72
2022-10-14T06:34:10.827Z,38.58
2022-10-14T06:36:38.086Z,20.17
2022-10-14T06:39:05.445Z,22.00
2022-10-14T06:41:33.094Z,22.48
2022-10-14T06:44:00.563Z,24.08
2022-10-14T06:46:27.595Z,25.85
2022-10-14T06:48:54.345Z,19.35
2022-10-14T06:51:21.246Z,19.52
2022-10-14T06:53:48.039Z,21.00
2022-10-14T06:56:14.890Z,16.00
2022-10-14T06:58:41.672Z,17.10
2022-10-14T07:01:08.768Z,17.02
2022-10-14T07:03:38.855Z,15.15
2022-10-14T07:06:07.182Z,18.75
2022-10-14T07:08:34.045Z,19.80
2022-10-14T07:11:01.258Z,34.13
2022-10-14T07:13:28.215Z,23.52
2022-10-14T07:15:55.006Z,18.88
2022-10-14T07:18:22.305Z,22.23
2022-10-14T07:20:49.179Z,17.13
2022-10-14T07:23:16.189Z,17.02
2022-10-14T07:25:43.578Z,15.60
2022-10-14T07:28:10.602Z,17.63
2022-10-14T07:30:37.366Z,11.52
2022-10-14T07:33:04.598Z,14.27
2022-10-14T07:35:31.517Z,17.58
2022-10-14T07:37:59.574Z,15.30
2022-10-14T07:40:26.969Z,9.05
2022-10-14T07:42:53.860Z,15.32
2022-10-14T07:45:21.445Z,14.80
2022-10-14T07:47:50.472Z,14.18
2022-10-14T07:50:18.011Z,18.15
2022-10-14T07:52:45.041Z,8.20
2022-10-14T07:55:12.271Z,10.15
2022-10-14T07:57:39.118Z,15.73
2022-10-14T08:00:07.030Z,12.35
2022-10-14T08:02:33.958Z,13.63
2022-10-14T08:05:25.732Z,15.20
2022-10-14T08:07:48.751Z,16.45
2022-10-14T08:10:16.463Z,14.05
2022-10-14T08:12:43.393Z,13.57
2022-10-14T08:15:10.678Z,13.90
2022-10-14T08:17:37.556Z,14.30
2022-10-14T08:20:04.829Z,17.55
2022-10-14T08:22:31.549Z,18.90
2022-10-14T08:24:58.371Z,11.27
2022-10-14T08:27:26.890Z,13.35
2022-10-14T08:29:54.569Z,16.65
2022-10-14T08:32:21.717Z,14.38
2022-10-14T08:34:48.664Z,17.52
2022-10-14T08:37:15.681Z,15.65
2022-10-14T08:39:43.562Z,15.75
2022-10-14T08:42:44.316Z,16.05
2022-10-14T08:45:17.683Z,16.70
2022-10-14T08:47:46.556Z,16.05
2022-10-14T08:50:29.303Z,13.48
2022-10-14T08:53:10.284Z,17.85
2022-10-14T08:55:41.027Z,17.77
2022-10-14T08:58:29.911Z,19.40
2022-10-14T09:00:59.230Z,23.60
2022-10-14T09:03:33.504Z,22.05
2022-10-14T09:06:05.185Z,21.17
2022-10-14T09:08:43.607Z,18.38
2022-10-14T09:11:17.525Z,20.60
2022-10-14T09:13:46.943Z,19.73
2022-10-14T09:16:18.676Z,17.02
2022-10-14T09:19:02.272Z,21.05
2022-10-14T09:21:40.854Z,21.38
2022-10-14T09:24:25.369Z,17.38
2022-10-14T09:26:58.962Z,23.85
2022-10-14T09:29:46.185Z,23.48
2022-10-14T09:32:20.742Z,19.85
2022-10-14T09:34:50.821Z,21.35
2022-10-14T09:37:30.814Z,17.30
2022-10-14T09:40:03.415Z,23.02
2022-10-14T09:42:35.869Z,37.67
2022-10-14T09:45:13.148Z,27.10
2022-10-14T09:47:49.271Z,22.15
2022-10-14T09:50:30.911Z,19.10
2022-10-14T09:53:02.309Z,17.00
2022-10-14T09:55:30.066Z,18.42
2022-10-14T09:58:04.168Z,18.75
2022-10-14T10:00:34.126Z,21.92
2022-10-14T10:03:01.251Z,19.02
2022-10-14T10:05:34.950Z,18.58
2022-10-14T10:08:03.151Z,17.35
2022-10-14T10:10:35.425Z,21.92
2022-10-14T10:13:03.037Z,18.42
2022-10-14T10:15:30.350Z,20.02
2022-10-14T10:17:57.280Z,20.83
2022-10-14T10:20:33.851Z,19.92
2022-10-14T10:23:19.512Z,13.52
2022-10-14T10:25:46.367Z,26.42
2022-10-14T10:28:32.988Z,16.98
2022-10-14T10:31:08.952Z,14.82
2022-10-14T10:33:52.027Z,16.55
2022-10-14T10:36:29.221Z,17.27
2022-10-14T10:39:02.072Z,20.15
2022-10-14T10:41:32.103Z,17.98
2022-10-14T10:44:15.525Z,16.23
2022-10-14T10:47:10.065Z,22.05
2022-10-14T10:49:52.141Z,16.75
2022-10-14T10:52:46.443Z,17.48
2022-10-14T10:55:50.617Z,17.75
2022-10-14T10:58:42.633Z,16.13
2022-10-14T11:01:12.323Z,21.75
2022-10-14T11:03:57.247Z,17.23
2022-10-14T11:07:09.224Z,15.70
2022-10-14T11:10:02.048Z,20.30
2022-10-14T11:13:02.287Z,15.25
2022-10-14T11:15:43.812Z,15.57
2022-10-14T11:18:28.848Z,20.27
2022-10-14T11:21:15.760Z,18.00
2022-10-14T11:24:11.548Z,22.58
2022-10-14T11:27:00.157Z,19.70
2022-10-14T11:29:27.159Z,17.65
2022-10-14T11:32:23.103Z,24.67
2022-10-14T11:37:34.535Z,15.30
2022-10-14T11:40:18.824Z,15.38
2022-10-14T11:43:07.790Z,22.92
2022-10-14T11:45:43.637Z,24.23
2022-10-14T11:48:28.210Z,17.50
2022-10-14T11:51:02.872Z,19.10
2022-10-14T11:54:05.022Z,26.30
2022-10-14T11:56:34.640Z,22.10
2022-10-14T11:59:17.795Z,20.90
2022-10-14T12:01:46.271Z,18.83
2022-10-14T12:04:27.289Z,21.60
2022-10-14T12:07:02.627Z,15.85
2022-10-14T12:09:44.901Z,20.08
2022-10-14T12:12:19.127Z,20.00
2022-10-14T12:14:55.531Z,16.03
2022-10-14T12:17:29.745Z,12.98
2022-10-14T12:20:01.445Z,15.65
2022-10-14T12:22:31.974Z,19.83
2022-10-14T12:25:05.823Z,22.23
2022-10-14T12:27:33.212Z,18.77
2022-10-14T12:30:00.158Z,18.50
2022-10-14T12:32:30.793Z,19.60
2022-10-14T12:35:01.854Z,20.02
2022-10-14T12:37:38.119Z,20.90
2022-10-14T12:40:07.976Z,14.98
2022-10-14T12:42:44.251Z,17.58
2022-10-14T12:45:17.840Z,18.00
2022-10-14T12:47:44.693Z,26.60
2022-10-14T12:50:14.514Z,20.30
2022-10-14T12:52:46.438Z,14.32
2022-10-14T12:55:20.776Z,14.18
2022-10-14T12:57:55.271Z,17.57
2022-10-14T13:00:21.968Z,15.30
2022-10-14T13:02:51.944Z,17.10
2022-10-14T13:05:37.413Z,18.17
2022-10-14T13:08:12.020Z,18.52
2022-10-14T13:10:43.466Z,16.52
2022-10-14T13:13:47.746Z,13.23
2022-10-14T13:16:23.765Z,13.32
2022-10-14T13:18:52.294Z,16.00
2022-10-14T13:21:37.284Z,17.20
2022-10-14T13:24:22.475Z,16.77
2022-10-14T13:26:55.251Z,19.48
2022-10-14T13:29:29.798Z,15.30
2022-10-14T13:32:05.701Z,15.48
2022-10-14T13:34:59.121Z,15.55
2022-10-14T13:37:46.536Z,13.57
2022-10-14T13:40:19.595Z,14.43
2022-10-14T13:42:51.299Z,10.52
2022-10-14T13:45:22.067Z,16.27
2022-10-14T13:47:50.120Z,13.07
2022-10-14T13:50:21.860Z,14.52
2022-10-14T13:53:01.113Z,13.40
2022-10-14T13:55:28.629Z,12.93
2022-10-14T13:58:14.099Z,13.48
2022-10-14T14:03:34.353Z,13.70
2022-10-14T14:06:09.236Z,12.02
2022-10-14T14:08:45.301Z,16.02
2022-10-14T14:11:24.550Z,15.60
2022-10-14T14:14:01.453Z,15.68
2022-10-14T14:16:35.449Z,16.52
2022-10-14T14:19:08.668Z,12.27
2022-10-14T14:21:37.378Z,10.00
2022-10-14T14:24:17.889Z,18.35
2022-10-14T14:26:45.103Z,18.27
2022-10-14T14:29:25.165Z,14.13
2022-10-14T14:32:08.573Z,18.50
2022-10-14T14:34:38.799Z,12.73
2022-10-14T14:37:33.915Z,10.65
2022-10-14T14:40:04.871Z,20.00
2022-10-14T14:42:39.874Z,16.80
2022-10-14T14:45:23.285Z,11.25
2022-10-14T14:47:53.071Z,13.10
2022-10-14T14:50:31.625Z,12.02
2022-10-14T14:53:04.103Z,11.43
2022-10-14T14:55:57.394Z,11.77
2022-10-14T14:58:29.413Z,12.25
2022-10-14T15:00:57.009Z,22.05
2022-10-14T15:03:26.815Z,13.63
2022-10-14T15:05:58.194Z,16.45
2022-10-14T15:08:28.758Z,13.57
2022-10-14T15:10:57.067Z,15.52
2022-10-14T15:13:29.286Z,12.82
2022-10-14T15:15:56.258Z,14.00
2022-10-14T15:18:27.806Z,11.90
2022-10-14T15:21:21.522Z,11.10
2022-10-14T15:23:52.929Z,13.45
2022-10-14T15:26:29.423Z,13.30
2022-10-14T15:29:08.368Z,10.88
2022-10-14T15:31:36.644Z,12.05
2022-10-14T15:34:04.611Z,12.73
2022-10-14T15:36:34.526Z,13.35
2022-10-14T15:39:02.576Z,13.75
2022-10-14T15:41:29.538Z,12.00
2022-10-14T15:43:56.483Z,13.38
2022-10-14T15:46:43.423Z,18.83
2022-10-14T15:49:26.653Z,12.98
2022-10-14T15:51:53.494Z,12.82
2022-10-14T15:54:20.242Z,15.07
2022-10-14T15:56:48.504Z,11.35
2022-10-14T15:59:16.434Z,12.43
2022-10-14T16:01:45.406Z,9.65
2022-10-14T16:04:25.950Z,10.32
2022-10-14T16:06:55.003Z,10.95
2022-10-14T16:09:27.870Z,14.75
2022-10-14T16:11:58.059Z,11.10
2022-10-14T16:14:28.311Z,16.45
2022-10-14T16:16:55.682Z,14.68
2022-10-14T16:19:22.675Z,13.65
2022-10-14T16:21:50.226Z,11.32
2022-10-14T16:24:20.523Z,11.10
2022-10-14T16:26:51.498Z,17.63
2022-10-14T16:29:19.422Z,11.85
2022-10-14T16:31:49.586Z,13.43
2022-10-14T16:34:20.815Z,18.00
2022-10-14T16:36:49.105Z,13.75
2022-10-14T16:39:17.523Z,11.55
2022-10-14T16:41:44.911Z,17.05
2022-10-14T16:44:32.358Z,14.02
2022-10-14T16:47:17.380Z,14.48
2022-10-14T16:49:46.126Z,23.23
2022-10-14T16:52:13.501Z,14.20
2022-10-14T16:54:40.570Z,15.98
2022-10-14T16:57:08.367Z,18.63
2022-10-14T16:59:35.156Z,11.85
2022-10-14T17:02:02.483Z,14.52
2022-10-14T17:04:29.475Z,14.85
2022-10-14T17:06:56.669Z,13.57
2022-10-14T17:11:50.558Z,15.57
2022-10-14T17:14:21.971Z,15.50
2022-10-14T17:16:52.505Z,18.35
2022-10-14T17:19:20.126Z,13.48
2022-10-14T17:21:48.963Z,14.77
2022-10-14T17:24:17.225Z,15.65
2022-10-14T17:26:45.366Z,17.75
2022-10-14T17:29:12.207Z,14.45
2022-10-14T17:31:39.165Z,14.18
2022-10-14T17:34:06.162Z,15.75
2022-10-14T17:36:32.827Z,13.35
2022-10-14T17:38:59.968Z,19.27
2022-10-14T17:41:29.194Z,16.40
2022-10-14T17:43:57.607Z,19.15
2022-10-14T17:46:27.332Z,18.48
2022-10-14T17:49:00.043Z,13.73
2022-10-14T17:51:28.241Z,19.67
2022-10-14T17:53:57.274Z,19.40
2022-10-14T17:56:24.934Z,15.38
2022-10-14T17:58:56.162Z,15.93
2022-10-14T18:01:37.028Z,19.00
2022-10-14T18:04:10.040Z,20.17
2022-10-14T18:06:37.585Z,16.35
2022-10-14T18:09:07.968Z,16.10
2022-10-14T18:12:07.235Z,19.50
2022-10-14T18:14:27.638Z,21.10
2022-10-14T18:16:54.796Z,21.83
2022-10-14T18:19:21.736Z,17.13
2022-10-14T18:21:49.175Z,19.38
2022-10-14T18:24:16.039Z,18.00
2022-10-14T18:26:42.870Z,14.70
2022-10-14T18:29:09.793Z,18.60
2022-10-14T18:31:36.859Z,16.65
2022-10-14T18:34:03.795Z,16.75
2022-10-14T18:36:33.218Z,28.42
2022-10-14T18:39:09.526Z,17.95
2022-10-14T18:41:39.373Z,19.60
2022-10-14T18:44:06.969Z,23.02
2022-10-14T18:46:36.744Z,21.00
2022-10-14T18:49:05.574Z,27.20
2022-10-14T18:51:35.472Z,26.65
2022-10-14T18:54:05.700Z,20.65
2022-10-14T18:56:36.575Z,15.48
2022-10-14T18:59:07.186Z,19.92
2022-10-14T19:01:37.082Z,19.65
2022-10-14T19:04:06.103Z,23.33
2022-10-14T19:06:33.938Z,18.88
2022-10-14T19:09:03.846Z,21.90
2022-10-14T19:11:34.591Z,25.13
2022-10-14T19:14:05.322Z,19.40
2022-10-14T19:16:34.496Z,19.70
2022-10-14T19:19:15.226Z,17.52
2022-10-14T19:21:43.918Z,18.80
2022-10-14T19:24:14.936Z,19.15
2022-10-14T19:26:46.703Z,15.95
2022-10-14T19:29:15.329Z,21.27
2022-10-14T19:31:43.840Z,20.00
2022-10-14T19:34:13.702Z,20.33
2022-10-14T19:36:41.247Z,21.08
2022-10-14T19:39:11.386Z,15.27
2022-10-14T19:41:45.223Z,14.55
2022-10-14T19:44:13.464Z,20.70
2022-10-14T19:46:41.089Z,20.48
2022-10-14T19:49:07.923Z,20.30
2022-10-14T19:51:35.156Z,21.42
2022-10-14T19:54:02.246Z,17.55
2022-10-14T19:56:29.164Z,18.70
2022-10-14T19:58:58.196Z,23.95
2022-10-14T20:01:28.278Z,28.92
2022-10-14T20:03:55.603Z,20.80
2022-10-14T20:06:23.372Z,25.85
2022-10-14T20:08:50.382Z,22.77
2022-10-14T20:11:21.382Z,21.45
2022-10-14T20:13:48.832Z,22.45
2022-10-14T20:16:16.186Z,24.98
2022-10-14T20:18:43.289Z,34.10
2022-10-14T20:21:12.897Z,18.20
2022-10-14T20:23:39.930Z,23.73
2022-10-14T20:26:09.210Z,24.42
2022-10-14T20:28:36.735Z,23.45
2022-10-14T20:31:09.140Z,27.90
2022-10-14T20:33:36.647Z,21.38
2022-10-14T20:36:10.233Z,24.17
2022-10-14T20:38:41.230Z,25.45
2022-10-14T20:41:13.417Z,22.73
2022-10-14T20:43:42.027Z,18.60
2022-10-14T20:46:09.331Z,20.30
2022-10-14T20:48:37.680Z,25.20
2022-10-14T20:51:06.202Z,22.65
2022-10-14T20:53:33.219Z,23.90
2022-10-14T20:56:07.139Z,15.40
2022-10-14T20:58:34.899Z,20.88
2022-10-14T21:01:16.171Z,18.17
2022-10-14T21:03:45.395Z,18.88
2022-10-14T21:06:19.165Z,19.25
2022-10-14T21:08:46.604Z,18.02
2022-10-14T21:11:16.346Z,19.73
2022-10-14T21:13:48.423Z,18.35
2022-10-14T21:16:20.605Z,18.55
2022-10-14T21:18:53.720Z,18.02
2022-10-14T21:21:27.167Z,17.50
2022-10-14T21:23:54.876Z,19.45
2022-10-14T21:26:22.639Z,18.77
2022-10-14T21:28:49.639Z,18.27
2022-10-14T21:31:19.223Z,19.27
2022-10-14T21:33:54.847Z,18.83
2022-10-14T21:38:48.508Z,16.15
2022-10-14T21:41:15.394Z,16.92
2022-10-14T21:43:42.166Z,16.98
2022-10-14T21:46:12.770Z,13.02
2022-10-14T21:48:41.220Z,17.67
2022-10-14T21:51:16.750Z,22.67
2022-10-14T21:53:45.239Z,14.02
2022-10-14T21:56:13.749Z,13.38
2022-10-14T21:58:41.110Z,17.23
2022-10-14T22:01:22.259Z,16.65
2022-10-14T22:04:09.928Z,18.08
2022-10-14T22:06:36.680Z,15.32
2022-10-14T22:09:06.732Z,17.50
2022-10-14T22:11:36.791Z,21.52
2022-10-14T22:14:06.551Z,17.00
2022-10-14T22:16:33.863Z,19.10
2022-10-14T22:19:02.142Z,16.20
2022-10-14T22:21:31.825Z,16.50
2022-10-14T22:23:58.998Z,16.05
2022-10-14T22:26:27.583Z,15.43
2022-10-14T22:29:11.837Z,16.10
2022-10-14T22:31:39.045Z,13.00
2022-10-14T22:34:07.778Z,13.82
2022-10-14T22:36:35.527Z,19.90
2022-10-14T22:39:16.382Z,15.20
2022-10-14T22:41:43.131Z,15.82
2022-10-14T22:44:10.605Z,12.57
2022-10-14T22:46:38.972Z,12.23
2022-10-14T22:49:06.271Z,15.18
2022-10-14T22:51:36.370Z,15.88
2022-10-14T22:54:03.870Z,17.08
2022-10-14T22:56:32.018Z,14.43
2022-10-14T22:59:01.742Z,17.08
2022-10-14T23:01:29.706Z,16.45
2022-10-14T23:03:58.021Z,13.15
2022-10-14T23:06:25.831Z,12.88
2022-10-14T23:08:52.640Z,16.35
2022-10-14T23:11:21.636Z,14.00
2022-10-14T23:13:49.118Z,17.45
2022-10-14T23:16:21.667Z,14.80
2022-10-14T23:18:49.366Z,12.82
2022-10-14T23:21:26.506Z,11.57
2022-10-14T23:23:56.064Z,14.45
2022-10-14T23:26:26.205Z,12.07
2022-10-14T23:28:56.249Z,19.48
2022-10-14T23:31:34.038Z,13.02
2022-10-14T23:34:03.634Z,10.77
2022-10-14T23:36:30.564Z,13.40
2022-10-14T23:38:59.116Z,13.15
2022-10-14T23:41:26.441Z,14.43
2022-10-14T23:43:53.492Z,17.88
2022-10-14T23:46:20.871Z,13.00
2022-10-14T23:48:55.742Z,12.32
2022-10-14T23:51:34.594Z,10.40
2022-10-14T23:54:01.363Z,9.93
2022-10-14T23:56:28.104Z,13.75
2022-10-14T23:58:54.995Z,14.15
